createdAt,value
2018-09-20T00:01:32.563Z,100.00
2018-09-20T00:04:40.419Z,100.00
2018-09-20T00:07:09.624Z,100.00
2018-09-20T00:09:38.771Z,100.00
2018-09-20T00:12:08.008Z,100.00
2018-09-20T00:14:37.103Z,100.00
2018-09-20T00:17:06.535Z,100.00
2018-09-20T00:19:35.643Z,100.00
2018-09-20T00:22:04.935Z,100.00
2018-09-20T00:24:34.064Z,100.00
2018-09-20T00:27:03.253Z,100.00
2018-09-20T00:29:32.505Z,100.00
2018-09-20T00:32:01.897Z,100.00
2018-09-20T00:34:31.020Z,100.00
2018-09-20T00:37:00.256Z,100.00
2018-09-20T00:39:29.438Z,100.00
2018-09-20T00:41:58.641Z,100.00
2018-09-20T00:44:27.797Z,100.00
2018-09-20T00:46:56.972Z,100.00
2018-09-20T00:49:26.124Z,100.00
2018-09-20T00:51:55.316Z,100.00
2018-09-20T00:54:24.634Z,100.00
2018-09-20T00:56:53.836Z,100.00
2018-09-20T00:59:23.064Z,100.00
2018-09-20T01:01:52.215Z,100.00
2018-09-20T01:04:21.367Z,100.00
2018-09-20T01:06:50.780Z,100.00
2018-09-20T01:09:19.897Z,100.00
2018-09-20T01:11:49.052Z,100.00
2018-09-20T01:14:18.141Z,100.00
2018-09-20T01:16:47.253Z,100.00
2018-09-20T01:19:16.360Z,100.00
2018-09-20T01:21:45.540Z,100.00
2018-09-20T01:24:14.642Z,100.00
2018-09-20T01:26:43.844Z,100.00
2018-09-20T01:29:12.975Z,100.00
2018-09-20T01:31:42.115Z,100.00
2018-09-20T01:34:11.267Z,100.00
2018-09-20T01:36:40.624Z,100.00
2018-09-20T01:39:13.144Z,100.00
2018-09-20T01:41:42.347Z,100.00
2018-09-20T01:44:12.224Z,100.00
2018-09-20T01:46:41.739Z,100.00
2018-09-20T01:49:10.842Z,100.00
2018-09-20T01:51:40.056Z,100.00
2018-09-20T01:54:09.159Z,100.00
2018-09-20T01:56:38.312Z,100.00
2018-09-20T01:59:07.427Z,100.00
2018-09-20T02:01:37.298Z,100.00
2018-09-20T02:04:06.430Z,100.00
2018-09-20T02:06:35.605Z,100.00
2018-09-20T02:09:07.296Z,100.00
2018-09-20T02:11:36.470Z,100.00
2018-09-20T02:14:05.956Z,100.00
2018-09-20T02:16:35.079Z,100.00
2018-09-20T02:19:04.556Z,100.00
2018-09-20T02:21:33.717Z,100.00
2018-09-20T02:24:03.085Z,100.00
2018-09-20T02:26:32.341Z,100.00
2018-09-20T02:29:01.496Z,100.00
2018-09-20T02:31:30.730Z,100.00
2018-09-20T02:33:59.918Z,100.00
2018-09-20T02:36:29.076Z,100.00
2018-09-20T02:38:58.332Z,100.00
2018-09-20T02:41:27.420Z,100.00
2018-09-20T02:43:56.536Z,100.00
2018-09-20T02:46:25.642Z,100.00
2018-09-20T02:48:54.774Z,100.00
2018-09-20T02:51:23.979Z,100.00
2018-09-20T02:53:53.187Z,100.00
2018-09-20T02:56:22.371Z,100.00
2018-09-20T02:58:51.592Z,100.00
2018-09-20T03:01:20.717Z,100.00
2018-09-20T03:03:49.803Z,100.00
2018-09-20T03:06:18.940Z,100.00
2018-09-20T03:08:48.069Z,100.00
2018-09-20T03:11:17.240Z,100.00
2018-09-20T03:13:46.333Z,100.00
2018-09-20T03:16:15.452Z,100.00
2018-09-20T03:18:44.652Z,100.00
2018-09-20T03:21:13.791Z,100.00
2018-09-20T03:23:42.916Z,100.00
2018-09-20T03:26:12.093Z,100.00
2018-09-20T03:28:41.172Z,100.00
2018-09-20T03:31:10.382Z,100.00
2018-09-20T03:33:39.478Z,100.00
2018-09-20T03:36:08.674Z,100.00
2018-09-20T03:38:37.812Z,100.00
2018-09-20T03:41:06.988Z,100.00
2018-09-20T03:43:36.245Z,100.00
2018-09-20T03:46:05.412Z,100.00
2018-09-20T03:48:34.593Z,100.00
2018-09-20T03:51:03.789Z,100.00
2018-09-20T03:53:32.902Z,100.00
2018-09-20T03:56:02.106Z,100.00
2018-09-20T03:58:31.223Z,100.00
2018-09-20T04:01:00.411Z,100.00
2018-09-20T04:03:29.511Z,100.00
2018-09-20T04:05:58.620Z,100.00
2018-09-20T04:08:28.166Z,100.00
2018-09-20T04:10:57.300Z,100.00
2018-09-20T04:13:26.405Z,100.00
2018-09-20T04:15:55.546Z,100.00
2018-09-20T04:18:24.892Z,100.00
2018-09-20T04:20:54.057Z,100.00
2018-09-20T04:23:23.268Z,100.00
2018-09-20T04:25:52.461Z,100.00
2018-09-20T04:28:21.568Z,100.00
2018-09-20T04:30:50.806Z,100.00
2018-09-20T04:33:20.052Z,100.00
2018-09-20T04:35:49.239Z,100.00
2018-09-20T04:38:18.356Z,100.00
2018-09-20T04:40:47.549Z,100.00
2018-09-20T04:43:16.705Z,100.00
2018-09-20T04:45:45.965Z,100.00
2018-09-20T04:48:15.089Z,100.00
2018-09-20T04:50:44.320Z,100.00
2018-09-20T04:53:13.445Z,100.00
2018-09-20T04:55:42.595Z,100.00
2018-09-20T04:58:11.729Z,100.00
2018-09-20T05:00:40.877Z,100.00
2018-09-20T05:03:10.017Z,100.00
2018-09-20T05:05:39.221Z,100.00
2018-09-20T05:08:08.753Z,100.00
2018-09-20T05:10:37.920Z,100.00
2018-09-20T05:13:07.152Z,100.00
2018-09-20T05:15:36.524Z,100.00
2018-09-20T05:18:05.693Z,100.00
2018-09-20T05:20:34.804Z,100.00
2018-09-20T05:23:04.162Z,100.00
2018-09-20T05:25:33.310Z,100.00
2018-09-20T05:28:02.493Z,100.00
2018-09-20T05:30:31.851Z,100.00
2018-09-20T05:33:01.032Z,100.00
2018-09-20T05:35:30.264Z,100.00
2018-09-20T05:37:59.416Z,100.00
2018-09-20T05:40:28.599Z,100.00
2018-09-20T05:42:57.711Z,100.00
2018-09-20T05:45:26.897Z,100.00
2018-09-20T05:47:56.163Z,100.00
2018-09-20T05:50:25.405Z,100.00
2018-09-20T05:52:54.557Z,100.00
2018-09-20T05:55:23.757Z,100.00
2018-09-20T05:57:52.881Z,100.00
2018-09-20T06:00:22.213Z,100.00
2018-09-20T06:02:51.349Z,100.00
2018-09-20T06:05:20.552Z,100.00
2018-09-20T06:07:49.744Z,100.00
2018-09-20T06:10:18.846Z,100.00
2018-09-20T06:12:48.069Z,100.00
2018-09-20T06:15:17.337Z,100.00
2018-09-20T06:17:46.452Z,100.00
2018-09-20T06:20:15.551Z,100.00
2018-09-20T06:22:44.725Z,100.00
2018-09-20T06:25:13.832Z,100.00
2018-09-20T06:27:43.011Z,100.00
2018-09-20T06:30:12.149Z,100.00
2018-09-20T06:32:41.356Z,98.53
2018-09-20T06:35:10.557Z,99.32
2018-09-20T06:37:39.680Z,98.26
2018-09-20T06:40:08.890Z,97.17
2018-09-20T06:42:38.053Z,96.30
2018-09-20T06:45:07.196Z,95.59
2018-09-20T06:47:36.308Z,93.38
2018-09-20T06:50:05.576Z,94.86
2018-09-20T06:52:34.788Z,94.72
2018-09-20T06:55:03.918Z,93.70
2018-09-20T06:57:35.576Z,92.08
2018-09-20T07:00:06.321Z,90.72
2018-09-20T07:02:35.804Z,92.35
2018-09-20T07:05:05.691Z,90.87
2018-09-20T07:07:34.768Z,89.71
2018-09-20T07:10:03.888Z,90.47
2018-09-20T07:12:33.188Z,89.83
2018-09-20T07:15:02.599Z,89.84
2018-09-20T07:17:31.742Z,88.67
2018-09-20T07:20:00.932Z,89.05
2018-09-20T07:22:30.104Z,87.68
2018-09-20T07:24:59.300Z,86.72
2018-09-20T07:27:28.549Z,85.67
2018-09-20T07:29:57.680Z,85.18
2018-09-20T07:32:26.782Z,84.69
2018-09-20T07:34:55.896Z,83.37
2018-09-20T07:37:24.980Z,82.88
2018-09-20T07:39:55.048Z,81.93
2018-09-20T07:42:24.226Z,81.31
2018-09-20T07:44:53.398Z,80.98
2018-09-20T07:47:22.588Z,81.34
2018-09-20T07:49:51.811Z,80.12
2018-09-20T07:52:20.901Z,80.02
2018-09-20T07:54:50.073Z,79.54
2018-09-20T07:57:19.167Z,80.55
2018-09-20T07:59:48.269Z,78.71
2018-09-20T08:02:17.377Z,79.74
2018-09-20T08:04:46.553Z,78.50
2018-09-20T08:07:15.654Z,78.65
2018-09-20T08:09:44.757Z,78.67
2018-09-20T08:12:13.837Z,78.25
2018-09-20T08:14:42.937Z,77.61
2018-09-20T08:17:12.137Z,77.06
2018-09-20T08:19:41.382Z,78.18
2018-09-20T08:22:10.489Z,77.30
2018-09-20T08:24:39.585Z,75.59
2018-09-20T08:27:08.686Z,77.26
2018-09-20T08:29:37.831Z,77.03
2018-09-20T08:32:07.120Z,75.86
2018-09-20T08:34:36.328Z,74.30
2018-09-20T08:37:05.505Z,72.31
2018-09-20T08:39:34.678Z,70.97
2018-09-20T08:42:03.840Z,70.03
2018-09-20T08:44:32.967Z,70.47
2018-09-20T08:47:02.120Z,69.79
2018-09-20T08:49:31.252Z,68.71
2018-09-20T08:52:00.443Z,69.60
2018-09-20T08:54:29.688Z,69.63
2018-09-20T08:56:58.985Z,69.63
2018-09-20T08:59:28.034Z,69.38
2018-09-20T09:01:57.188Z,68.13
2018-09-20T09:04:26.401Z,67.48
2018-09-20T09:06:55.489Z,68.02
2018-09-20T09:09:24.669Z,66.83
2018-09-20T09:11:53.926Z,64.49
2018-09-20T09:14:23.159Z,64.74
2018-09-20T09:16:52.283Z,65.08
2018-09-20T09:19:21.438Z,63.63
2018-09-20T09:21:50.636Z,64.75
2018-09-20T09:24:19.738Z,63.88
2018-09-20T09:26:48.880Z,64.17
2018-09-20T09:29:17.999Z,63.96
2018-09-20T09:31:47.530Z,63.21
2018-09-20T09:34:16.699Z,62.93
2018-09-20T09:36:45.858Z,63.60
2018-09-20T09:39:14.979Z,62.16
2018-09-20T09:41:44.689Z,61.21
2018-09-20T09:44:13.828Z,63.71
2018-09-20T09:46:42.933Z,64.60
2018-09-20T09:49:12.140Z,65.19
2018-09-20T09:51:41.248Z,64.02
2018-09-20T09:54:10.444Z,62.17
2018-09-20T09:56:39.636Z,60.92
2018-09-20T09:59:08.804Z,61.35
2018-09-20T10:01:37.926Z,61.76
2018-09-20T10:04:07.052Z,60.39
2018-09-20T10:06:36.200Z,61.88
2018-09-20T10:09:07.879Z,61.95
2018-09-20T10:11:37.110Z,58.70
2018-09-20T10:14:06.254Z,61.69
2018-09-20T10:16:35.370Z,60.17
2018-09-20T10:19:04.580Z,58.08
2018-09-20T10:21:33.792Z,59.70
2018-09-20T10:24:03.036Z,58.81
2018-09-20T10:26:32.138Z,57.74
2018-09-20T10:29:01.243Z,60.04
2018-09-20T10:31:30.378Z,57.26
2018-09-20T10:33:59.538Z,54.28
2018-09-20T10:36:28.629Z,55.25
2018-09-20T10:38:57.702Z,55.67
2018-09-20T10:41:26.914Z,58.18
2018-09-20T10:43:56.004Z,55.82
2018-09-20T10:46:25.132Z,55.49
2018-09-20T10:48:54.300Z,58.85
2018-09-20T10:51:23.420Z,56.80
2018-09-20T10:53:52.597Z,54.14
2018-09-20T10:56:21.718Z,55.44
2018-09-20T10:58:50.880Z,57.57
2018-09-20T11:01:20.000Z,56.75
2018-09-20T11:03:49.289Z,55.19
2018-09-20T11:06:18.574Z,55.40
2018-09-20T11:08:47.641Z,55.52
2018-09-20T11:11:16.770Z,54.22
2018-09-20T11:13:45.934Z,53.26
2018-09-20T11:16:15.093Z,51.71
2018-09-20T11:18:44.165Z,50.87
2018-09-20T11:21:13.259Z,49.79
2018-09-20T11:23:42.392Z,48.03
2018-09-20T11:26:11.532Z,47.77
2018-09-20T11:28:40.589Z,47.68
2018-09-20T11:31:09.765Z,46.98
2018-09-20T11:33:39.001Z,48.74
2018-09-20T11:36:08.342Z,44.55
2018-09-20T11:38:37.376Z,43.03
2018-09-20T11:41:06.553Z,43.04
2018-09-20T11:43:35.749Z,43.44
2018-09-20T11:46:04.837Z,44.75
2018-09-20T11:48:33.929Z,41.14
2018-09-20T11:51:03.112Z,39.49
2018-09-20T11:53:32.240Z,40.22
2018-09-20T11:56:01.396Z,41.58
2018-09-20T11:58:30.698Z,41.90
2018-09-20T12:00:59.896Z,40.28
2018-09-20T12:03:29.092Z,39.16
2018-09-20T12:05:58.210Z,38.19
2018-09-20T12:08:27.302Z,37.25
2018-09-20T12:10:56.384Z,38.80
2018-09-20T12:13:25.478Z,36.55
2018-09-20T12:15:54.612Z,36.14
2018-09-20T12:18:23.716Z,35.12
2018-09-20T12:20:52.912Z,34.04
2018-09-20T12:23:22.018Z,32.09
2018-09-20T12:25:51.223Z,32.90
2018-09-20T12:28:20.351Z,34.39
2018-09-20T12:30:50.150Z,33.01
2018-09-20T12:33:19.324Z,33.04
2018-09-20T12:35:48.451Z,32.08
2018-09-20T12:38:17.664Z,32.10
2018-09-20T12:40:46.681Z,30.82
2018-09-20T12:43:15.923Z,31.99
2018-09-20T12:45:44.957Z,30.92
2018-09-20T12:48:14.078Z,31.90
2018-09-20T12:50:43.233Z,31.12
2018-09-20T12:53:12.332Z,31.46
2018-09-20T12:55:41.459Z,29.30
2018-09-20T12:58:10.613Z,30.82
2018-09-20T13:00:39.801Z,31.08
2018-09-20T13:03:08.873Z,29.65
2018-09-20T13:05:37.994Z,29.79
2018-09-20T13:08:07.100Z,29.90
2018-09-20T13:10:36.222Z,30.27
2018-09-20T13:13:05.367Z,29.35
2018-09-20T13:15:34.492Z,30.05
2018-09-20T13:18:03.600Z,28.99
2018-09-20T13:20:32.838Z,30.80
2018-09-20T13:23:01.900Z,28.29
2018-09-20T13:25:31.047Z,29.72
2018-09-20T13:28:00.172Z,29.12
2018-09-20T13:30:29.460Z,27.81
2018-09-20T13:32:58.536Z,28.82
2018-09-20T13:35:27.664Z,29.53
2018-09-20T13:37:56.932Z,28.97
2018-09-20T13:40:26.056Z,28.07
2018-09-20T13:42:55.214Z,28.16
2018-09-20T13:45:24.291Z,27.94
2018-09-20T13:47:53.535Z,26.29
2018-09-20T13:50:22.681Z,27.41
2018-09-20T13:52:51.805Z,27.19
2018-09-20T13:55:20.975Z,27.44
2018-09-20T13:57:50.037Z,27.69
2018-09-20T14:00:19.141Z,26.88
2018-09-20T14:02:48.377Z,26.22
2018-09-20T14:05:17.452Z,27.56
2018-09-20T14:07:46.588Z,27.57
2018-09-20T14:10:15.726Z,26.43
2018-09-20T14:12:44.884Z,26.09
2018-09-20T14:15:13.958Z,25.86
2018-09-20T14:17:43.062Z,26.74
2018-09-20T14:20:12.162Z,27.36
2018-09-20T14:22:41.257Z,26.56
2018-09-20T14:25:10.357Z,26.61
2018-09-20T14:27:39.681Z,28.40
2018-09-20T14:30:08.881Z,26.07
2018-09-20T14:32:37.961Z,27.06
2018-09-20T14:35:07.164Z,28.18
2018-09-20T14:37:36.268Z,26.57
2018-09-20T14:40:05.370Z,26.75
2018-09-20T14:42:34.463Z,25.14
2018-09-20T14:45:03.655Z,27.09
2018-09-20T14:47:32.744Z,25.95
2018-09-20T14:50:01.881Z,25.22
2018-09-20T14:52:31.014Z,27.04
2018-09-20T14:55:00.096Z,26.62
2018-09-20T14:57:29.216Z,25.19
2018-09-20T14:59:58.289Z,25.94
2018-09-20T15:02:27.475Z,26.08
2018-09-20T15:04:56.476Z,24.58
2018-09-20T15:07:25.747Z,27.12
2018-09-20T15:09:55.113Z,27.09
2018-09-20T15:12:24.203Z,26.00
2018-09-20T15:14:53.348Z,26.63
2018-09-20T15:17:22.413Z,26.53
2018-09-20T15:19:51.538Z,26.44
2018-09-20T15:22:20.631Z,27.21
2018-09-20T15:24:49.832Z,26.83
2018-09-20T15:27:18.925Z,26.88
2018-09-20T15:29:48.073Z,27.90
2018-09-20T15:32:17.185Z,27.24
2018-09-20T15:34:46.259Z,28.54
2018-09-20T15:37:15.379Z,28.53
2018-09-20T15:39:44.493Z,27.97
2018-09-20T15:42:13.609Z,28.50
2018-09-20T15:44:42.693Z,29.56
2018-09-20T15:47:11.849Z,28.50
2018-09-20T15:49:40.895Z,28.96
2018-09-20T15:52:10.061Z,29.62
2018-09-20T15:54:39.176Z,28.51
2018-09-20T15:57:08.282Z,28.85
2018-09-20T15:59:37.408Z,29.83
2018-09-20T16:02:06.561Z,29.43
2018-09-20T16:04:35.664Z,29.36
2018-09-20T16:07:04.780Z,31.17
2018-09-20T16:09:33.848Z,30.63
2018-09-20T16:12:03.048Z,31.93
2018-09-20T16:14:32.134Z,33.05
2018-09-20T16:17:01.238Z,35.30
2018-09-20T16:19:30.310Z,35.94
2018-09-20T16:21:59.400Z,36.73
2018-09-20T16:24:28.523Z,37.06
2018-09-20T16:26:57.626Z,38.76
2018-09-20T16:29:43.040Z,39.91
2018-09-20T16:36:38.461Z,40.51
2018-09-20T16:39:16.000Z,43.58
2018-09-20T16:41:46.449Z,41.83
2018-09-20T16:44:15.564Z,42.65
2018-09-20T16:46:44.656Z,43.39
2018-09-20T16:49:13.900Z,44.96
2018-09-20T16:51:43.004Z,44.73
2018-09-20T16:54:12.388Z,44.53
2018-09-20T16:56:41.496Z,45.57
2018-09-20T16:59:10.716Z,45.93
2018-09-20T17:01:39.804Z,46.73
2018-09-20T17:04:08.924Z,48.75
2018-09-20T17:06:38.028Z,49.09
2018-09-20T17:09:08.166Z,50.51
2018-09-20T17:11:37.517Z,51.17
2018-09-20T17:14:06.720Z,51.83
2018-09-20T17:16:35.911Z,52.58
2018-09-20T17:19:05.021Z,53.03
2018-09-20T17:21:34.142Z,53.47
2018-09-20T17:24:03.349Z,54.25
2018-09-20T17:26:32.469Z,54.91
2018-09-20T17:29:01.588Z,55.79
2018-09-20T17:31:30.668Z,54.51
2018-09-20T17:33:59.778Z,55.46
2018-09-20T17:36:29.135Z,56.59
2018-09-20T17:38:58.577Z,57.41
2018-09-20T17:41:30.328Z,57.30
2018-09-20T17:44:02.560Z,58.27
2018-09-20T17:46:31.659Z,59.42
2018-09-20T17:49:00.741Z,59.13
2018-09-20T17:51:30.098Z,59.80
2018-09-20T17:53:59.617Z,60.84
2018-09-20T17:56:29.350Z,61.26
2018-09-20T17:58:59.036Z,60.52
2018-09-20T18:01:28.313Z,61.91
2018-09-20T18:03:57.504Z,62.84
2018-09-20T18:06:26.591Z,62.47
2018-09-20T18:08:55.758Z,63.32
2018-09-20T18:11:24.863Z,62.91
2018-09-20T18:13:54.145Z,63.11
2018-09-20T18:16:23.261Z,63.89
2018-09-20T18:18:52.401Z,64.10
2018-09-20T18:21:21.541Z,64.87
2018-09-20T18:23:50.670Z,65.28
2018-09-20T18:26:19.822Z,67.63
2018-09-20T18:28:48.936Z,67.50
2018-09-20T18:31:18.065Z,67.70
2018-09-20T18:33:47.175Z,68.84
2018-09-20T18:36:16.305Z,68.88
2018-09-20T18:38:45.516Z,69.42
2018-09-20T18:41:14.684Z,70.57
2018-09-20T18:43:43.884Z,69.66
2018-09-20T18:46:13.064Z,70.60
2018-09-20T18:48:42.207Z,70.53
2018-09-20T18:51:11.380Z,71.99
2018-09-20T18:53:40.577Z,70.97
2018-09-20T18:56:09.752Z,71.96
2018-09-20T18:58:38.868Z,71.45
2018-09-20T19:01:08.765Z,71.94
2018-09-20T19:03:37.802Z,71.64
2018-09-20T19:06:06.917Z,72.57
2018-09-20T19:08:36.072Z,73.83
2018-09-20T19:11:05.306Z,74.63
2018-09-20T19:13:34.457Z,76.61
2018-09-20T19:16:03.584Z,76.43
2018-09-20T19:18:32.751Z,77.97
2018-09-20T19:21:01.996Z,79.06
2018-09-20T19:23:31.111Z,79.92
2018-09-20T19:26:00.258Z,79.44
2018-09-20T19:28:29.440Z,81.50
2018-09-20T19:30:58.761Z,80.77
2018-09-20T19:33:27.937Z,80.54
2018-09-20T19:35:57.080Z,81.26
2018-09-20T19:38:26.224Z,83.25
2018-09-20T19:40:55.503Z,84.40
2018-09-20T19:43:24.609Z,83.11
2018-09-20T19:45:53.745Z,85.24
2018-09-20T19:48:23.756Z,85.94
2018-09-20T19:50:52.997Z,85.45
2018-09-20T19:53:22.091Z,85.35
2018-09-20T19:55:51.237Z,85.85
2018-09-20T19:58:20.404Z,86.40
2018-09-20T20:00:49.781Z,87.35
2018-09-20T20:03:18.918Z,87.32
2018-09-20T20:05:48.044Z,86.95
2018-09-20T20:08:17.228Z,86.82
2018-09-20T20:10:46.330Z,88.93
2018-09-20T20:13:15.449Z,87.54
2018-09-20T20:15:44.602Z,87.70
2018-09-20T20:18:13.797Z,88.42
2018-09-20T20:20:42.883Z,89.34
2018-09-20T20:23:12.115Z,88.95
2018-09-20T20:25:41.301Z,89.84
2018-09-20T20:28:10.529Z,90.31
2018-09-20T20:30:39.689Z,90.78
2018-09-20T20:33:08.818Z,90.95
2018-09-20T20:35:44.231Z,91.37
2018-09-20T20:38:13.422Z,91.25
2018-09-20T20:40:42.534Z,91.58
2018-09-20T20:43:11.705Z,91.32
2018-09-20T20:45:40.918Z,91.53
2018-09-20T20:48:10.069Z,92.88
2018-09-20T20:50:39.199Z,92.88
2018-09-20T20:53:08.411Z,92.76
2018-09-20T20:55:37.449Z,93.01
2018-09-20T20:58:06.886Z,93.67
2018-09-20T21:00:35.989Z,93.64
2018-09-20T21:03:05.433Z,94.22
2018-09-20T21:05:34.553Z,94.17
2018-09-20T21:08:03.653Z,94.03
2018-09-20T21:10:32.798Z,94.71
2018-09-20T21:13:02.239Z,94.19
2018-09-20T21:15:31.410Z,94.45
2018-09-20T21:18:00.586Z,94.84
2018-09-20T21:20:29.806Z,95.03
2018-09-20T21:22:58.964Z,95.12
2018-09-20T21:25:28.115Z,95.27
2018-09-20T21:27:57.198Z,95.14
2018-09-20T21:30:26.338Z,96.15
2018-09-20T21:32:55.568Z,95.86
2018-09-20T21:35:24.770Z,95.96
2018-09-20T21:37:53.893Z,96.90
2018-09-20T21:40:23.002Z,97.91
2018-09-20T21:42:52.096Z,97.78
2018-09-20T21:45:21.262Z,97.98
2018-09-20T21:47:50.428Z,97.88
2018-09-20T21:50:19.672Z,97.61
2018-09-20T21:52:48.786Z,97.64
2018-09-20T21:55:17.902Z,97.37
2018-09-20T21:57:46.993Z,97.63
2018-09-20T22:00:16.166Z,97.93
2018-09-20T22:02:50.678Z,97.50
2018-09-20T22:05:19.855Z,97.28
2018-09-20T22:07:48.978Z,98.12
2018-09-20T22:10:18.139Z,97.33
2018-09-20T22:12:47.269Z,98.86
2018-09-20T22:15:23.516Z,98.55
2018-09-20T22:17:53.032Z,98.62
2018-09-20T22:20:22.797Z,99.00
2018-09-20T22:22:52.692Z,98.82
2018-09-20T22:25:21.970Z,99.75
2018-09-20T22:27:51.198Z,99.91
2018-09-20T22:30:20.581Z,100.00
2018-09-20T22:32:49.728Z,99.86
2018-09-20T22:35:18.900Z,100.00
2018-09-20T22:37:48.024Z,98.94
2018-09-20T22:40:17.132Z,100.00
2018-09-20T22:42:46.328Z,99.20
2018-09-20T22:45:15.408Z,99.02
2018-09-20T22:47:44.588Z,99.62
2018-09-20T22:50:13.683Z,100.00
2018-09-20T22:52:42.896Z,99.51
2018-09-20T22:55:12.096Z,100.00
2018-09-20T22:57:41.244Z,100.00
2018-09-20T23:00:10.376Z,100.00
2018-09-20T23:02:39.598Z,100.00
2018-09-20T23:05:08.784Z,100.00
2018-09-20T23:07:37.899Z,100.00
2018-09-20T23:10:07.081Z,100.00
2018-09-20T23:12:36.243Z,100.00
2018-09-20T23:15:05.485Z,100.00
2018-09-20T23:17:34.653Z,100.00
2018-09-20T23:20:03.801Z,100.00
2018-09-20T23:22:32.987Z,100.00
2018-09-20T23:25:02.130Z,100.00
2018-09-20T23:27:31.249Z,100.00
2018-09-20T23:30:00.370Z,100.00
2018-09-20T23:32:29.472Z,100.00
2018-09-20T23:34:58.593Z,100.00
2018-09-20T23:39:56.409Z,100.00
2018-09-20T23:42:25.509Z,100.00
2018-09-20T23:44:54.624Z,100.00
2018-09-20T23:47:23.723Z,100.00
2018-09-20T23:49:52.825Z,100.00
2018-09-20T23:52:21.952Z,100.00
2018-09-20T23:54:51.112Z,100.00
2018-09-20T23:57:20.288Z,100.00
2018-09-20T23:59:49.432Z,100.00
